Time;durP1;ratioP1;P1;durP2;ratioP2;P2;SDS_P1;SDS_P2;PMS_P1;PMS_P2;Temp;Humidity;BMP_temperature;BMP_pressure;BME280_temperature;BME280_humidity;BME280_pressure;Samples;Min_cycle;Max_cycle;Signal;HPM_P1;HPM_P2
2020/12/03 00:01:27;;;;;;;1999.90;999.90;;;;;;;-0.70;76.49;100917.69;15856237;28;20046;-60
2020/12/03 00:09:03;;;;;;;;;;;;;;;-0.99;78.34;100921.66;15871077;28;20043;-61
2020/12/03 00:16:36;;;;;;;1999.90;999.90;;;;;;;-0.95;77.81;100931.03;15848554;28;20032;-61
2020/12/03 00:24:12;;;;;;;1999.90;999.90;;;;;;;-1.15;77.92;100909.63;15849860;28;20432;-61
2020/12/03 00:31:47;;;;;;;1999.90;999.90;;;;;;;-1.29;78.42;100906.41;15776729;28;20143;-60
2020/12/03 00:39:20;;;;;;;1999.90;999.90;;;;;;;-1.01;77.23;100919.19;15812293;28;20047;-61
2020/12/03 00:46:53;;;;;;;1999.90;999.90;;;;;;;-0.88;76.60;100902.38;15793416;28;20036;-61
2020/12/03 00:54:27;;;;;;;1999.90;999.90;;;;;;;-1.13;77.30;100899.28;15775106;28;20101;-59
2020/12/03 01:02:00;;;;;;;1999.90;999.90;;;;;;;-1.19;77.05;100895.63;15791669;28;20066;-59
2020/12/03 01:09:37;;;;;;;1999.90;999.90;;;;;;;-0.70;75.67;100875.75;15790890;28;20071;-61
2020/12/03 01:17:12;;;;;;;1999.90;999.90;;;;;;;-0.71;75.17;100869.44;15808310;28;20093;-59
2020/12/03 01:24:46;;;;;;;1999.90;999.90;;;;;;;-0.81;75.03;100865.75;15798954;28;20042;-60
2020/12/03 01:32:18;;;;;;;1999.90;999.90;;;;;;;-0.41;74.12;100858.03;15831102;28;20044;-60
2020/12/03 01:39:52;;;;;;;1999.90;999.90;;;;;;;-0.81;75.27;100830.97;15806445;28;20040;-59
2020/12/03 01:47:27;;;;;;;;;;;;;;;-0.74;74.87;100836.22;15807088;28;20054;-60
2020/12/03 01:55:01;;;;;;;1999.90;999.90;;;;;;;-0.87;76.04;100813.63;15787739;28;19920;-60
2020/12/03 02:02:34;;;;;;;1999.90;999.90;;;;;;;-0.76;74.45;100797.31;15787343;28;20066;-59
2020/12/03 02:10:08;;;;;;;1999.90;999.90;;;;;;;-0.88;75.12;100787.31;15804740;28;20513;-60
2020/12/03 02:17:41;;;;;;;1999.90;999.90;;;;;;;-0.90;75.49;100764.00;15805026;28;20048;-60
2020/12/03 02:25:16;;;;;;;1999.90;999.90;;;;;;;-0.93;75.28;100740.69;15818896;28;20401;-58
2020/12/03 02:32:49;;;;;;;1999.90;999.90;;;;;;;-1.41;77.65;100725.00;15849201;28;20039;-58
2020/12/03 02:40:22;;;;;;;1999.90;999.90;;;;;;;-1.07;76.68;100713.94;15867931;28;20039;-59
2020/12/03 02:47:54;;;;;;;;;;;;;;;-0.79;76.13;100719.19;15869185;28;20051;-60
2020/12/03 02:55:28;;;;;;;1999.90;999.90;;;;;;;-0.98;76.57;100705.00;15866404;28;20315;-59
2020/12/03 03:03:00;;;;;;;1999.90;999.90;;;;;;;-0.92;76.31;100693.03;15867331;28;20135;-60
2020/12/03 03:10:34;;;;;;;1999.90;999.90;;;;;;;-0.88;76.55;100677.72;15866088;28;20046;-60
2020/12/03 03:18:07;;;;;;;1999.90;999.90;;;;;;;-0.98;76.84;100671.31;15830549;28;20463;-60
2020/12/03 03:25:41;;;;;;;1999.90;999.90;;;;;;;-1.00;76.85;100668.00;15865765;28;20039;-58
2020/12/03 03:33:14;;;;;;;;;;;;;;;-0.93;76.42;100657.69;15800744;28;20075;-60
2020/12/03 03:40:47;;;;;;;1999.90;999.90;;;;;;;-0.75;75.92;100654.53;15784646;28;20022;-60
2020/12/03 03:48:20;;;;;;;;;;;;;;;-0.57;75.54;100656.09;15784188;28;20051;-61
2020/12/03 03:55:53;;;;;;;1999.90;999.90;;;;;;;-0.78;76.29;100641.38;15782852;28;19966;-58
2020/12/03 04:03:26;;;;;;;1999.90;999.90;;;;;;;-0.60;75.55;100615.50;15804331;28;20052;-60
2020/12/03 04:11:00;;;;;;;1999.90;999.90;;;;;;;-0.34;74.57;100613.78;15794210;28;20395;-60
2020/12/03 04:18:32;;;;;;;1999.90;999.90;;;;;;;-0.61;75.64;100611.94;15812286;28;20137;-60
2020/12/03 04:26:06;;;;;;;1999.90;999.90;;;;;;;-0.60;75.06;100597.16;15831866;28;20089;-59
2020/12/03 04:33:38;;;;;;;1999.90;999.90;;;;;;;-0.62;74.74;100599.34;15856169;28;20158;-60
2020/12/03 04:41:12;;;;;;;1999.90;999.90;;;;;;;-0.28;73.67;100599.03;15839194;28;20043;-60
2020/12/03 04:48:51;;;;;;;;;;;;;;;-0.38;74.60;100593.47;15874395;28;20054;-59
2020/12/03 04:56:34;;;;;;;1999.90;999.90;;;;;;;-0.29;73.89;100586.41;15854417;28;19924;-59
2020/12/03 05:04:11;;;;;;;1999.90;999.90;;;;;;;-0.20;74.12;100571.13;15837509;28;20047;-60
2020/12/03 05:11:53;;;;;;;1999.90;999.90;;;;;;;-0.26;73.84;100574.06;15854390;28;20134;-59
2020/12/03 05:19:37;;;;;;;1999.90;999.90;;;;;;;-0.07;73.04;100559.66;15835979;28;20070;-60
2020/12/03 05:27:18;;;;;;;1999.90;999.90;;;;;;;-0.15;73.11;100567.56;15852132;28;20039;-60
2020/12/03 05:34:53;;;;;;;1999.90;999.90;;;;;;;0.21;71.98;100555.69;15809893;28;20040;-59
2020/12/03 05:42:36;;;;;;;1999.90;999.90;;;;;;;0.27;71.16;100551.03;15789610;28;20054;-61
2020/12/03 05:50:15;;;;;;;1999.90;999.90;;;;;;;0.03;71.75;100555.31;15788982;28;20035;-56
2020/12/03 05:57:49;;;;;;;1999.90;999.90;;;;;;;-0.03;72.28;100536.06;15806185;28;20044;-61
2020/12/03 06:05:26;;;;;;;1999.90;999.90;;;;;;;0.31;70.62;100532.09;15786741;28;20044;-59
2020/12/03 06:13:15;;;;;;;1999.90;999.90;;;;;;;0.04;71.18;100515.81;15805708;28;20484;-60
2020/12/03 06:21:01;;;;;;;1999.90;999.90;;;;;;;0.06;71.85;100511.69;15786255;28;20048;-60
2020/12/03 06:28:50;;;;;;;1999.90;999.90;;;;;;;-0.13;71.56;100513.25;15810240;28;20047;-62
2020/12/03 06:36:39;;;;;;;1999.90;999.90;;;;;;;0.11;71.37;100517.22;15867143;28;20040;-57
2020/12/03 06:44:20;;;;;;;1999.90;999.90;;;;;;;-0.01;72.23;100525.66;15848681;28;20047;-58
2020/12/03 06:52:18;;;;;;;1999.90;999.90;;;;;;;0.01;72.02;100516.34;15848712;28;20027;-60
2020/12/03 07:00:26;;;;;;;1999.90;999.90;;;;;;;-0.07;72.63;100501.22;15848279;28;20058;-61
2020/12/03 07:08:39;;;;;;;1999.90;999.90;;;;;;;0.26;71.97;100510.94;15847680;28;20143;-60
2020/12/03 07:16:44;;;;;;;1999.90;999.90;;;;;;;0.43;70.50;100492.34;15840418;28;20171;-61
2020/12/03 07:24:23;;;;;;;1999.90;999.90;;;;;;;0.24;71.26;100485.69;15845726;28;20131;-59
2020/12/03 07:32:00;;;;;;;1999.90;999.90;;;;;;;0.21;71.74;100473.34;15830358;28;20046;-61
2020/12/03 07:39:36;;;;;;;1999.90;999.90;;;;;;;0.04;71.86;100486.47;15871429;28;20070;-61
2020/12/03 07:47:33;;;;;;;1999.90;999.90;;;;;;;0.29;71.50;100471.97;15877566;28;20386;-60
2020/12/03 07:55:39;;;;;;;1999.90;999.90;;;;;;;0.51;70.85;100463.50;15858787;28;20075;-62
2020/12/03 08:03:40;;;;;;;1999.90;999.90;;;;;;;0.72;70.44;100451.44;15859648;28;20425;-62
2020/12/03 08:11:39;;;;;;;1999.90;999.90;;;;;;;0.73;69.85;100444.88;15870536;28;20052;-54
2020/12/03 08:19:22;;;;;;;1999.90;999.90;;;;;;;0.75;70.39;100414.38;15857623;28;20047;-59
2020/12/03 08:26:59;;;;;;;1999.90;999.90;;;;;;;0.89;68.97;100426.47;15857489;27;20055;-60
2020/12/03 08:34:34;;;;;;;1999.90;999.90;;;;;;;1.05;68.65;100425.34;15841358;28;20552;-61
2020/12/03 08:42:11;;;;;;;1999.90;999.90;;;;;;;1.07;68.73;100420.41;15855254;28;20039;-62
2020/12/03 08:49:45;;;;;;;1999.90;999.90;;;;;;;1.17;68.09;100422.31;15916451;27;20055;-62
2020/12/03 08:57:21;;;;;;;1999.90;999.90;;;;;;;0.96;68.86;100406.97;15918159;27;20387;-61
2020/12/03 09:04:57;;;;;;;1999.90;999.90;;;;;;;0.96;68.98;100394.03;15918194;27;20076;-57
2020/12/03 09:12:34;;;;;;;1999.90;999.90;;;;;;;0.99;69.16;100390.72;15937308;27;20138;-61
2020/12/03 09:20:10;;;;;;;1999.90;999.90;;;;;;;0.71;70.00;100370.16;15936809;27;20042;-60
2020/12/03 09:27:45;;;;;;;1999.90;999.90;;;;;;;0.93;69.07;100371.78;15937224;27;20047;-62
2020/12/03 09:35:20;;;;;;;1999.90;999.90;;;;;;;1.13;67.56;100355.25;15873343;28;20122;-62
2020/12/03 09:42:53;;;;;;;1999.90;999.90;;;;;;;1.26;68.20;100343.69;15836460;28;20075;-61
2020/12/03 09:50:27;;;;;;;;;;;;;;;1.47;67.12;100319.69;15869924;27;20066;-62
2020/12/03 09:58:00;;;;;;;;;;;;;;;1.76;66.37;100321.69;15835825;28;19920;-61
2020/12/03 10:05:48;;;;;;;1999.90;999.90;;;;;;;1.72;66.35;100308.53;15868719;27;19923;-62
2020/12/03 10:13:44;;;;;;;1999.90;999.90;;;;;;;1.47;66.86;100297.69;15868383;28;20042;-61
2020/12/03 10:21:21;;;;;;;1999.90;999.90;;;;;;;1.78;65.99;100270.81;15849771;28;20032;-62
2020/12/03 10:29:07;;;;;;;1999.90;999.90;;;;;;;1.83;65.28;100254.25;15919323;27;20047;-62
2020/12/03 10:36:51;;;;;;;1999.90;999.90;;;;;;;1.68;66.41;100246.13;15858483;27;20087;-62
2020/12/03 10:44:26;;;;;;;1999.90;999.90;;;;;;;1.80;66.13;100238.34;15912708;27;20126;-61
2020/12/03 10:52:02;;;;;;;1999.90;999.90;;;;;;;1.91;66.19;100220.63;15931700;27;20051;-62
2020/12/03 10:59:40;;;;;;;1999.90;999.90;;;;;;;1.98;65.60;100201.88;15931077;28;20447;-62
2020/12/03 11:07:14;;;;;;;1999.90;999.90;;;;;;;1.92;66.65;100191.19;15913197;27;20160;-62
2020/12/03 11:14:47;;;;;;;1999.90;999.90;;;;;;;2.05;65.95;100178.69;15938027;27;20114;-62
2020/12/03 11:22:47;;;;;;;1999.90;999.90;;;;;;;2.08;65.65;100165.16;15942632;27;20441;-60
2020/12/03 11:30:23;;;;;;;1999.90;999.90;;;;;;;2.40;65.40;100141.69;15900769;27;20066;-62
2020/12/03 11:37:57;;;;;;;1999.90;999.90;;;;;;;2.28;65.80;100142.09;15859580;28;20048;-62
2020/12/03 11:53:21;;;;;;;1999.90;999.90;;;;;;;2.27;65.38;100133.03;15878207;28;20492;-60
2020/12/03 12:01:11;;;;;;;1999.90;999.90;;;;;;;2.33;63.80;100124.72;15905923;27;20043;-62
2020/12/03 12:08:48;;;;;;;1999.90;999.90;;;;;;;2.65;63.43;100110.28;15925865;27;20137;-63
2020/12/03 12:16:21;;;;;;;1999.90;999.90;;;;;;;2.69;63.02;100103.88;15942545;27;20092;-61
2020/12/03 12:23:55;;;;;;;1999.90;999.90;;;;;;;2.60;62.38;100098.25;15917090;27;20043;-60
2020/12/03 12:31:27;;;;;;;1999.90;999.90;;;;;;;2.44;62.10;100080.25;15891225;27;20108;-61
2020/12/03 12:39:01;;;;;;;1999.90;999.90;;;;;;;2.48;61.64;100066.72;15853109;28;20046;-61
2020/12/03 12:46:33;;;;;;;;;;;;;;;2.56;61.49;100061.38;15852762;28;20122;-61
2020/12/03 12:54:06;;;;;;;1999.90;999.90;;;;;;;2.57;61.45;100042.91;15870024;28;19927;-63
2020/12/03 13:01:43;;;;;;;1999.90;999.90;;;;;;;2.52;61.50;100046.56;15888964;27;20046;-61
2020/12/03 13:09:16;;;;;;;1999.90;999.90;;;;;;;2.40;61.70;100037.06;15864777;28;20048;-61
2020/12/03 13:16:49;;;;;;;1999.90;999.90;;;;;;;2.46;60.89;100033.16;15854228;28;20035;-62
2020/12/03 13:24:23;;;;;;;1999.90;999.90;;;;;;;2.58;61.05;100033.53;15853074;28;20043;-62
2020/12/03 13:31:56;;;;;;;1999.90;999.90;;;;;;;2.29;60.70;100030.88;15852595;28;20031;-61
2020/12/03 13:39:31;;;;;;;1999.90;999.90;;;;;;;2.46;61.16;100020.19;15869665;28;20047;-62
2020/12/03 13:47:04;;;;;;;1999.90;999.90;;;;;;;2.56;60.76;100028.31;15835130;28;20036;-61
2020/12/03 13:54:37;;;;;;;1999.90;999.90;;;;;;;2.58;60.51;100014.25;15850273;28;20039;-61
2020/12/03 14:02:14;;;;;;;1999.90;999.90;;;;;;;2.70;60.51;100011.03;15865854;28;20059;-62
2020/12/03 14:09:48;;;;;;;1999.90;999.90;;;;;;;2.65;60.90;99989.09;15832700;28;20047;-60
2020/12/03 14:17:21;;;;;;;1999.90;999.90;;;;;;;2.43;61.20;99995.19;15848526;28;20036;-62
2020/12/03 14:24:54;;;;;;;1999.90;999.90;;;;;;;2.65;60.90;100000.09;15865110;28;20047;-62
2020/12/03 14:32:27;;;;;;;;;;;;;;;2.53;60.88;99984.84;15847097;28;20043;-61
2020/12/03 14:40:01;;;;;;;1999.90;999.90;;;;;;;2.29;62.09;99976.66;15863938;28;20426;-62
2020/12/03 14:47:34;;;;;;;;;;;;;;;2.48;62.03;99965.63;15851278;28;20048;-61
2020/12/03 14:55:08;;;;;;;1999.90;999.90;;;;;;;2.30;62.36;99966.47;15867021;28;20334;-60
2020/12/03 15:02:42;;;;;;;;;;;;;;;2.45;61.92;99954.41;15849542;28;20044;-61
2020/12/03 15:10:20;;;;;;;1999.90;999.90;;;;;;;2.43;62.21;99937.38;15866401;28;19927;-60
2020/12/03 15:17:53;;;;;;;1999.90;999.90;;;;;;;2.36;62.60;99920.38;15830445;28;20051;-60
2020/12/03 15:25:26;;;;;;;1999.90;999.90;;;;;;;2.57;61.78;99910.69;15847025;28;20071;-61
2020/12/03 15:32:59;;;;;;;;;;;;;;;2.66;61.67;99911.66;15825770;28;20048;-61
2020/12/03 15:40:32;;;;;;;1999.90;999.90;;;;;;;2.51;61.80;99895.41;15862507;28;19919;-61
2020/12/03 15:48:21;;;;;;;1999.90;999.90;;;;;;;2.47;62.17;99875.88;15828205;28;20043;-61
2020/12/03 15:55:54;;;;;;;1999.90;999.90;;;;;;;2.27;62.08;99867.94;15843104;28;20040;-60
2020/12/03 16:03:27;;;;;;;1999.90;999.90;;;;;;;2.40;62.09;99860.84;15853936;28;20500;-60
2020/12/03 16:11:01;;;;;;;1999.90;999.90;;;;;;;2.54;61.48;99856.22;15853260;28;20079;-61
2020/12/03 16:18:34;;;;;;;1999.90;999.90;;;;;;;2.50;61.49;99849.66;15855349;28;20048;-61
2020/12/03 16:26:07;;;;;;;1999.90;999.90;;;;;;;2.55;60.93;99828.38;15852915;28;20039;-60
2020/12/03 16:33:42;;;;;;;1999.90;999.90;;;;;;;2.64;61.12;99811.16;15834664;28;20051;-60
2020/12/03 16:41:15;;;;;;;1999.90;999.90;;;;;;;2.85;60.44;99807.75;15851924;28;20104;-61
2020/12/03 16:48:49;;;;;;;1999.90;999.90;;;;;;;2.64;61.04;99812.00;15871190;28;20070;-61
2020/12/03 16:56:24;;;;;;;1999.90;999.90;;;;;;;2.78;60.55;99798.22;15869157;28;20155;-57
2020/12/03 17:03:56;;;;;;;1999.90;999.90;;;;;;;2.82;60.88;99791.84;15885882;27;20054;-60
2020/12/03 17:11:30;;;;;;;1999.90;999.90;;;;;;;2.55;61.47;99784.31;15849140;28;20043;-57
2020/12/03 17:19:02;;;;;;;;;;;;;;;2.83;61.40;99779.69;15851593;28;20051;-58
2020/12/03 17:26:36;;;;;;;1999.90;999.90;;;;;;;2.57;62.06;99784.00;15862658;28;20390;-60
2020/12/03 17:34:08;;;;;;;1999.90;999.90;;;;;;;2.72;62.11;99781.00;15866791;28;20126;-61
2020/12/03 17:41:42;;;;;;;1999.90;999.90;;;;;;;2.85;61.77;99785.69;15866384;27;20035;-60
2020/12/03 17:49:14;;;;;;;1999.90;999.90;;;;;;;2.82;61.77;99780.81;15868014;28;20071;-61
2020/12/03 17:56:53;;;;;;;1999.90;999.90;;;;;;;3.04;61.35;99774.59;15846977;28;20032;-61
2020/12/03 18:04:26;;;;;;;1999.90;999.90;;;;;;;2.88;61.55;99774.06;15864796;28;20050;-61
2020/12/03 18:11:59;;;;;;;1999.90;999.90;;;;;;;3.09;60.76;99782.75;15845318;28;20046;-60
2020/12/03 18:19:32;;;;;;;1999.90;999.90;;;;;;;2.95;60.97;99773.66;15847773;28;20071;-62
2020/12/03 18:27:05;;;;;;;1999.90;999.90;;;;;;;3.04;61.04;99771.03;15846838;28;20032;-61
2020/12/03 18:34:38;;;;;;;1999.90;999.90;;;;;;;3.07;60.17;99765.72;15863770;28;20135;-61
2020/12/03 18:42:14;;;;;;;1999.90;999.90;;;;;;;2.92;60.41;99768.78;15863511;28;20044;-62
2020/12/03 18:49:47;;;;;;;1999.90;999.90;;;;;;;2.89;60.00;99758.34;15846976;28;20048;-63
2020/12/03 18:57:20;;;;;;;1999.90;999.90;;;;;;;2.79;59.77;99764.88;15844825;28;20040;-61
2020/12/03 19:04:53;;;;;;;1999.90;999.90;;;;;;;2.89;59.16;99752.84;15863209;28;20039;-62
2020/12/03 19:12:27;;;;;;;1999.90;999.90;;;;;;;2.79;59.71;99747.53;15862539;28;20138;-61
2020/12/03 19:19:59;;;;;;;1999.90;999.90;;;;;;;3.02;58.81;99734.66;15863300;28;20043;-61
2020/12/03 19:27:33;;;;;;;1999.90;999.90;;;;;;;3.00;58.96;99731.41;15843284;28;20080;-61
2020/12/03 19:35:11;;;;;;;1999.90;999.90;;;;;;;2.78;59.11;99721.91;15839593;28;20116;-63
2020/12/03 19:42:44;;;;;;;1999.90;999.90;;;;;;;2.98;58.97;99720.69;15871325;28;20500;-61
2020/12/03 19:50:17;;;;;;;1999.90;999.90;;;;;;;2.84;59.00;99717.13;15874297;28;20055;-62
2020/12/03 19:57:52;;;;;;;1999.90;999.90;;;;;;;2.88;58.95;99723.66;15874340;28;20197;-60
2020/12/03 20:05:26;;;;;;;1999.90;999.90;;;;;;;3.06;58.42;99713.66;15854008;28;20047;-59
2020/12/03 20:12:59;;;;;;;1999.90;999.90;;;;;;;2.76;58.82;99707.63;15871769;28;20483;-61
2020/12/03 20:20:33;;;;;;;1999.90;999.90;;;;;;;2.52;58.88;99704.25;15836703;28;20047;-63
2020/12/03 20:28:11;;;;;;;1999.90;999.90;;;;;;;2.77;58.80;99680.91;15855852;28;20035;-65
2020/12/03 20:35:44;;;;;;;1999.90;999.90;;;;;;;2.63;58.99;99672.66;15856303;28;20396;-63
2020/12/03 20:43:18;;;;;;;1999.90;999.90;;;;;;;2.53;59.20;99665.41;15850328;28;20042;-62
2020/12/03 20:50:51;;;;;;;1999.90;999.90;;;;;;;2.63;58.66;99656.13;15868150;28;20056;-63
2020/12/03 20:58:24;;;;;;;1999.90;999.90;;;;;;;2.62;58.48;99645.41;15871082;28;20044;-63
2020/12/03 21:05:57;;;;;;;1999.90;999.90;;;;;;;2.47;58.65;99641.00;15849512;28;20481;-61
2020/12/03 21:13:32;;;;;;;1999.90;999.90;;;;;;;2.41;58.63;99632.03;15866420;28;20048;-61
2020/12/03 21:21:05;;;;;;;1999.90;999.90;;;;;;;2.36;58.74;99621.13;15866718;28;20082;-62
2020/12/03 21:28:38;;;;;;;1999.90;999.90;;;;;;;2.68;58.19;99611.94;15870281;28;20100;-62
2020/12/03 21:36:11;;;;;;;1999.90;999.90;;;;;;;2.50;58.42;99618.34;15846741;28;20134;-63
2020/12/03 21:43:45;;;;;;;1999.90;999.90;;;;;;;2.37;58.84;99608.16;15829860;28;20209;-60
2020/12/03 21:51:17;;;;;;;1999.90;999.90;;;;;;;2.29;59.04;99601.41;15864623;28;20544;-61
2020/12/03 21:58:51;;;;;;;1999.90;999.90;;;;;;;2.04;59.75;99588.97;15867196;28;20458;-61
2020/12/03 22:06:24;;;;;;;1999.90;999.90;;;;;;;2.08;59.77;99581.72;15845256;28;20044;-62
2020/12/03 22:13:57;;;;;;;1999.90;999.90;;;;;;;1.94;60.36;99575.41;15863409;28;20035;-62
2020/12/03 22:21:30;;;;;;;1999.90;999.90;;;;;;;1.70;60.19;99556.31;15846207;28;20354;-61
2020/12/03 22:29:04;;;;;;;1999.90;999.90;;;;;;;1.48;61.39;99551.47;15865658;28;20505;-62
2020/12/03 22:36:37;;;;;;;1999.90;999.90;;;;;;;1.23;61.77;99538.97;15862804;28;20417;-62
2020/12/03 22:44:10;;;;;;;1999.90;999.90;;;;;;;1.36;62.54;99523.66;15864214;28;20039;-61
2020/12/03 22:51:43;;;;;;;1999.90;999.90;;;;;;;1.12;63.26;99518.25;15864039;28;20051;-61
2020/12/03 22:59:17;;;;;;;1999.90;999.90;;;;;;;1.06;63.37;99494.75;15847824;28;20048;-62
2020/12/03 23:06:53;;;;;;;1999.90;999.90;;;;;;;0.90;64.37;99476.88;15845528;28;20405;-61
2020/12/03 23:14:26;;;;;;;1999.90;999.90;;;;;;;0.82;64.03;99467.38;15857793;28;20093;-61
2020/12/03 23:22:01;;;;;;;1999.90;999.90;;;;;;;0.60;65.29;99454.25;15857057;28;20051;-61
2020/12/03 23:29:35;;;;;;;1999.90;999.90;;;;;;;0.54;65.40;99458.22;15842984;28;20056;-60
2020/12/03 23:37:07;;;;;;;1999.90;999.90;;;;;;;0.57;65.01;99441.97;15856296;28;20035;-60
2020/12/03 23:44:41;;;;;;;1999.90;999.90;;;;;;;0.29;65.41;99430.00;15855840;28;20036;-60
2020/12/03 23:52:14;;;;;;;1999.90;999.90;;;;;;;0.37;65.19;99420.31;15874291;28;20043;-61
2020/12/03 23:59:47;;;;;;;1999.90;999.90;;;;;;;0.55;64.76;99419.50;15876244;28;20069;-61
